Kezdőlap
METAR-TAF:

METAR-TAF

Repülőterek :

Banja Luka-i nemzetközi repülőtér

Banja Luka, Bosznia-Hercegovina

földrajzi szélesség: 44-47N, földrajzi hosszúság: 017-13E, magasság: 156 m

Jelenlegi meteorológiai megfigyelések

A jelentés 18 perccel ezelõtt készült, 15:30 UTC
Nyugat-északnyugati szél 2 kt
Hőmérséklet 6°C
Páratartalom 87%
Légköri nyomás 1015 hPa
Látótávolság 10 km, vagy több
felhőtlen 1500 m magasságban, és nincs gomolyfelhõ

METAR: LQBK 151530Z 30002KT CAVOK 06/04 Q1015 NOSIG

Idő: 16:48 (15:48 UTC)

Előrejelzés

A jelentés 4 órával és 48 perccel ezelõtt készült, 11:00 UTC
Az előrejelzés 15-én 12 óra UTC és 16-én 12 óra UTC között érvényes
Déli szél 6 kt
Látótávolság 10 km, vagy több
felhőtlen 1500 m magasságban, és nincs gomolyfelhõ
Valószínűség 30% :
16-én 02 óra UTC és 16-én 07 óra UTC között ideiglenes
Látótávolság: 3000 m
Párásság

TAF: LQBK 151100Z 1512/1612 19006KT CAVOK TX10/1513Z TN02/1606Z PROB30 TEMPO 1602/1607 3000 BR

Meteorológiai megfigyelések és előrejelzések több, mint 4000 repülőtéren (METAR és TAF jelentéseket).

A térképen piros és sárga pontok jelzik az elérhető meteorológiai állomásokat.

Mozgassa az egeret a pont fölött, hogy megjelenjen az állomás neve.

Azután kattintson az időjárási megfigyelések és előrejelzések megtekintéséhez.

A térkép megváltoztatása: kattintson a fekete keresztel jelölt zöld gombra ráközelítéshez, a vonallal jelölt zöld gombra távolításhoz, vagy a zöld nyilakra a szomszédos térképek eléréséhez.


METAR-TAF: